Time;durP1;ratioP1;P1;durP2;ratioP2;P2;SDS_P1;SDS_P2;PMS_P1;PMS_P2;Temp;Humidity;BMP_temperature;BMP_pressure;BME280_temperature;BME280_humidity;BME280_pressure;Samples;Min_cycle;Max_cycle;Signal;HPM_P1;HPM_P2
2023/05/14 00:00:28;;;;;;;1.33;1.23;;;;;;;;;;12666355;23;20391;-83
2023/05/14 00:05:32;;;;;;;2.15;1.30;;;;;;;;;;12661832;23;20438;-83
2023/05/14 00:10:34;;;;;;;1.80;1.10;;;;;;;;;;12665774;23;20375;-82
2023/05/14 00:15:36;;;;;;;1.00;0.90;;;;;;;;;;12663344;23;20444;-83
2023/05/14 00:20:40;;;;;;;2.28;1.17;;;;;;;;;;12667634;23;20390;-82
2023/05/14 00:25:43;;;;;;;1.30;0.90;;;;;;;;;;12667246;23;20371;-83
2023/05/14 00:30:45;;;;;;;3.40;1.07;;;;;;;;;;12668421;23;20372;-83
2023/05/14 00:35:49;;;;;;;2.63;1.48;;;;;;;;;;12669227;23;20438;-82
2023/05/14 00:40:51;;;;;;;1.10;1.00;;;;;;;;;;12669673;23;20454;-82
2023/05/14 00:45:54;;;;;;;1.73;1.00;;;;;;;;;;12668403;23;20379;-82
2023/05/14 00:50:58;;;;;;;1.13;1.02;;;;;;;;;;12668414;23;20442;-82
2023/05/14 00:56:00;;;;;;;1.63;0.93;;;;;;;;;;12668918;23;20375;-82
2023/05/14 01:01:03;;;;;;;1.05;0.95;;;;;;;;;;12668771;23;20767;-81
2023/05/14 01:06:13;;;;;;;1.85;0.93;;;;;;;;;;12667744;23;21010;-82
2023/05/14 01:11:22;;;;;;;1.77;0.80;;;;;;;;;;12668623;23;20847;-82
2023/05/14 01:16:27;;;;;;;2.05;1.08;;;;;;;;;;12667712;23;20926;-83
2023/05/14 01:21:43;;;;;;;1.00;0.90;;;;;;;;;;12667951;23;20395;-83
2023/05/14 01:26:45;;;;;;;1.57;1.10;;;;;;;;;;12666740;23;20375;-82
2023/05/14 01:31:50;;;;;;;1.67;0.93;;;;;;;;;;12667302;23;20501;-82
2023/05/14 01:36:55;;;;;;;2.13;1.40;;;;;;;;;;12667170;23;21012;-82
2023/05/14 01:41:58;;;;;;;2.50;1.20;;;;;;;;;;12666834;23;20391;-82
2023/05/14 01:47:01;;;;;;;1.98;1.20;;;;;;;;;;12667149;23;20367;-82
2023/05/14 01:52:05;;;;;;;2.27;1.50;;;;;;;;;;12667754;23;20841;-83
2023/05/14 01:57:07;;;;;;;1.65;1.48;;;;;;;;;;12667796;23;20430;-82
2023/05/14 02:02:09;;;;;;;2.00;1.80;;;;;;;;;;12667243;23;20462;-83
2023/05/14 02:07:13;;;;;;;1.90;1.50;;;;;;;;;;12637288;23;20420;-82
2023/05/14 02:12:15;;;;;;;1.58;1.40;;;;;;;;;;12607057;23;20377;-82
2023/05/14 02:17:17;;;;;;;1.70;1.40;;;;;;;;;;12607815;23;20432;-82
2023/05/14 02:22:21;;;;;;;2.37;1.60;;;;;;;;;;12607331;23;20455;-83
2023/05/14 02:27:23;;;;;;;2.17;1.83;;;;;;;;;;12606559;23;20765;-82
2023/05/14 02:32:26;;;;;;;2.05;1.77;;;;;;;;;;12606070;23;20376;-82
2023/05/14 02:37:29;;;;;;;3.13;2.13;;;;;;;;;;12607456;23;20428;-82
2023/05/14 02:42:31;;;;;;;1.70;1.60;;;;;;;;;;12626888;23;20877;-82
2023/05/14 02:47:34;;;;;;;3.73;2.03;;;;;;;;;;12607299;23;20931;-82
2023/05/14 02:52:37;;;;;;;3.10;2.20;;;;;;;;;;12610095;23;20908;-83
2023/05/14 02:57:40;;;;;;;2.20;2.00;;;;;;;;;;12611025;23;20377;-82
2023/05/14 03:02:42;;;;;;;3.05;1.73;;;;;;;;;;12610117;23;20952;-81
2023/05/14 03:07:45;;;;;;;2.25;1.90;;;;;;;;;;12610271;23;20392;-83
2023/05/14 03:12:48;;;;;;;2.88;2.10;;;;;;;;;;12610105;23;20598;-82
2023/05/14 03:17:50;;;;;;;2.90;2.13;;;;;;;;;;12610166;23;20861;-82
2023/05/14 03:22:54;;;;;;;2.30;2.08;;;;;;;;;;12610225;23;20455;-82
2023/05/14 03:27:57;;;;;;;3.88;1.98;;;;;;;;;;12610373;23;20368;-82
2023/05/14 03:32:59;;;;;;;2.33;2.13;;;;;;;;;;12609092;23;20486;-83
2023/05/14 03:38:03;;;;;;;2.23;2.03;;;;;;;;;;12609429;23;20439;-83
2023/05/14 03:43:05;;;;;;;3.78;2.35;;;;;;;;;;12608970;23;20936;-83
2023/05/14 03:48:08;;;;;;;3.57;1.93;;;;;;;;;;12609741;23;20389;-83
2023/05/14 03:53:11;;;;;;;4.37;1.90;;;;;;;;;;12609350;23;20376;-83
2023/05/14 03:58:14;;;;;;;2.47;1.90;;;;;;;;;;12610122;23;20373;-83
2023/05/14 04:03:16;;;;;;;3.07;2.07;;;;;;;;;;12608689;23;20400;-83
2023/05/14 04:08:19;;;;;;;3.53;2.00;;;;;;;;;;12608103;23;20452;-82
2023/05/14 04:13:22;;;;;;;3.03;1.85;;;;;;;;;;12606451;23;20916;-83
2023/05/14 04:18:24;;;;;;;4.45;1.77;;;;;;;;;;12603653;23;20920;-83
2023/05/14 04:23:28;;;;;;;2.22;1.30;;;;;;;;;;12603810;23;20393;-83
2023/05/14 04:28:30;;;;;;;1.38;1.20;;;;;;;;;;12604812;23;20377;-83
2023/05/14 04:33:32;;;;;;;1.10;1.00;;;;;;;;;;12605752;23;20428;-82
2023/05/14 04:38:36;;;;;;;2.00;1.17;;;;;;;;;;12606773;23;20405;-83
2023/05/14 04:43:40;;;;;;;2.15;1.50;;;;;;;;;;12608040;23;20392;-83
2023/05/14 04:48:42;;;;;;;1.63;1.17;;;;;;;;;;12608681;23;20373;-82
2023/05/14 04:53:45;;;;;;;1.70;1.17;;;;;;;;;;12608203;23;20373;-83
2023/05/14 04:58:48;;;;;;;1.88;1.33;;;;;;;;;;12628297;23;20413;-82
2023/05/14 05:03:50;;;;;;;1.65;1.55;;;;;;;;;;12607348;23;20393;-82
2023/05/14 05:08:53;;;;;;;2.90;1.50;;;;;;;;;;12607323;23;20409;-82
2023/05/14 05:13:56;;;;;;;1.60;1.50;;;;;;;;;;12608391;23;20413;-83
2023/05/14 05:18:58;;;;;;;1.55;1.40;;;;;;;;;;12607381;23;20385;-82
2023/05/14 05:24:02;;;;;;;2.78;1.58;;;;;;;;;;12606835;23;20392;-84
2023/05/14 05:29:04;;;;;;;1.38;1.27;;;;;;;;;;12608457;23;20440;-83
2023/05/14 05:34:07;;;;;;;1.73;1.60;;;;;;;;;;12606925;23;20439;-84
2023/05/14 05:39:10;;;;;;;4.05;1.90;;;;;;;;;;12607385;23;20372;-84
2023/05/14 05:44:12;;;;;;;1.80;1.30;;;;;;;;;;12608123;23;20396;-83
2023/05/14 05:49:15;;;;;;;1.48;1.30;;;;;;;;;;12607833;23;20377;-84
2023/05/14 05:54:18;;;;;;;1.95;1.10;;;;;;;;;;12608306;23;20401;-84
2023/05/14 05:59:20;;;;;;;2.10;1.00;;;;;;;;;;12607239;23;20408;-84
2023/05/14 06:04:23;;;;;;;2.35;1.33;;;;;;;;;;12607389;23;20393;-84
2023/05/14 06:09:26;;;;;;;1.67;1.00;;;;;;;;;;12609379;23;20439;-84
2023/05/14 06:14:29;;;;;;;1.10;1.00;;;;;;;;;;12606123;23;20373;-84
2023/05/14 06:19:31;;;;;;;1.67;0.90;;;;;;;;;;12607273;23;20373;-84
2023/05/14 06:24:34;;;;;;;1.33;1.10;;;;;;;;;;12608485;23;20393;-84
2023/05/14 06:29:37;;;;;;;1.80;0.88;;;;;;;;;;12611744;23;20380;-84
2023/05/14 06:34:39;;;;;;;1.10;0.80;;;;;;;;;;12610810;23;20373;-84
2023/05/14 06:39:48;;;;;;;1.20;0.80;;;;;;;;;;12611596;23;20702;-84
2023/05/14 06:44:50;;;;;;;1.20;1.10;;;;;;;;;;12608934;23;20432;-84
2023/05/14 06:49:54;;;;;;;1.02;0.98;;;;;;;;;;12610518;23;20372;-84
2023/05/14 06:54:58;;;;;;;1.60;1.00;;;;;;;;;;12609801;23;20392;-84
2023/05/14 07:00:00;;;;;;;1.20;0.90;;;;;;;;;;12610379;23;20392;-84
2023/05/14 07:05:02;;;;;;;2.50;1.00;;;;;;;;;;12609567;23;20444;-82
2023/05/14 07:10:08;;;;;;;3.53;1.77;;;;;;;;;;12610588;23;20368;-84
2023/05/14 07:15:11;;;;;;;2.73;1.70;;;;;;;;;;12609725;23;20845;-84
2023/05/14 07:20:13;;;;;;;2.35;1.50;;;;;;;;;;12609103;23;20428;-83
2023/05/14 07:25:17;;;;;;;1.88;1.52;;;;;;;;;;12610411;23;20368;-84
2023/05/14 07:30:19;;;;;;;3.03;1.70;;;;;;;;;;12609679;23;20377;-84
2023/05/14 07:35:21;;;;;;;2.22;1.60;;;;;;;;;;12609246;23;20985;-83
2023/05/14 07:40:25;;;;;;;1.75;1.50;;;;;;;;;;12609790;23;20377;-84
2023/05/14 07:45:27;;;;;;;2.38;1.70;;;;;;;;;;12608791;23;20436;-84
2023/05/14 07:50:30;;;;;;;2.05;1.55;;;;;;;;;;12608917;23;20377;-84
2023/05/14 07:55:34;;;;;;;2.58;1.60;;;;;;;;;;12609586;23;20758;-83
2023/05/14 08:00:36;;;;;;;1.80;1.50;;;;;;;;;;12609095;23;20408;-84
2023/05/14 08:05:38;;;;;;;2.88;1.80;;;;;;;;;;12609184;23;20388;-84
2023/05/14 08:10:42;;;;;;;3.38;2.28;;;;;;;;;;12608901;23;20730;-83
2023/05/14 08:15:44;;;;;;;3.15;1.98;;;;;;;;;;12608812;23;20432;-84
2023/05/14 08:20:47;;;;;;;2.38;1.80;;;;;;;;;;12608730;23;20416;-84
2023/05/14 08:25:50;;;;;;;4.47;2.10;;;;;;;;;;12607397;23;20919;-84
2023/05/14 08:30:53;;;;;;;2.60;1.90;;;;;;;;;;12608153;23;20405;-84
2023/05/14 08:35:57;;;;;;;2.28;1.70;;;;;;;;;;12608656;23;20710;-84
2023/05/14 08:41:00;;;;;;;2.37;1.80;;;;;;;;;;12607598;23;20920;-84
2023/05/14 08:46:05;;;;;;;2.63;1.90;;;;;;;;;;12608317;23;20428;-85
2023/05/14 08:51:08;;;;;;;2.60;1.60;;;;;;;;;;12607441;23;20381;-84
2023/05/14 08:56:14;;;;;;;3.85;2.10;;;;;;;;;;12607851;23;20439;-84
2023/05/14 09:01:16;;;;;;;2.53;2.15;;;;;;;;;;12607813;23;20422;-85
2023/05/14 09:06:20;;;;;;;3.10;2.33;;;;;;;;;;12624204;23;20379;-85
2023/05/14 09:11:24;;;;;;;4.10;2.90;;;;;;;;;;12669742;23;20371;-85
2023/05/14 09:16:26;;;;;;;5.32;2.78;;;;;;;;;;12668072;23;20375;-84
2023/05/14 09:21:30;;;;;;;3.35;2.58;;;;;;;;;;12668465;23;20395;-85
2023/05/14 09:26:35;;;;;;;2.85;2.20;;;;;;;;;;12667285;23;20398;-85
2023/05/14 09:31:37;;;;;;;3.43;2.50;;;;;;;;;;12664534;23;20378;-85
2023/05/14 09:36:39;;;;;;;3.22;2.25;;;;;;;;;;12667821;23;20433;-85
2023/05/14 09:41:43;;;;;;;2.75;2.20;;;;;;;;;;12664820;23;20712;-85
2023/05/14 09:46:45;;;;;;;3.08;2.30;;;;;;;;;;12662254;23;20375;-84
2023/05/14 09:51:48;;;;;;;3.25;2.35;;;;;;;;;;12660628;23;20371;-85
2023/05/14 09:56:52;;;;;;;2.33;2.05;;;;;;;;;;12662373;23;20688;-85
2023/05/14 10:01:54;;;;;;;3.53;2.40;;;;;;;;;;12661793;23;20443;-84
2023/05/14 10:06:57;;;;;;;5.07;2.97;;;;;;;;;;12658605;23;20371;-85
2023/05/14 10:12:01;;;;;;;3.25;2.75;;;;;;;;;;12661731;23;20375;-85
2023/05/14 10:17:05;;;;;;;3.00;2.70;;;;;;;;;;12663539;23;20371;-85
2023/05/14 10:22:10;;;;;;;3.00;2.67;;;;;;;;;;12666993;23;20756;-84
2023/05/14 10:27:16;;;;;;;3.20;2.65;;;;;;;;;;12665226;23;20468;-83
2023/05/14 10:32:20;;;;;;;4.93;2.97;;;;;;;;;;12660967;23;20371;-82
2023/05/14 10:37:24;;;;;;;4.43;2.63;;;;;;;;;;12664485;23;20422;-83
2023/05/14 10:42:35;;;;;;;4.65;3.20;;;;;;;;;;12666141;23;20391;-82
2023/05/14 10:47:39;;;;;;;3.50;3.03;;;;;;;;;;12664160;23;20371;-82
2023/05/14 10:52:42;;;;;;;3.53;3.00;;;;;;;;;;12665203;23;20405;-82
2023/05/14 10:57:46;;;;;;;4.38;3.30;;;;;;;;;;12667805;23;20708;-82
2023/05/14 11:02:48;;;;;;;3.97;3.20;;;;;;;;;;12668287;23;20470;-82
2023/05/14 11:07:52;;;;;;;5.30;3.30;;;;;;;;;;12668131;23;20375;-82
2023/05/14 11:12:57;;;;;;;3.53;3.00;;;;;;;;;;12670846;23;20441;-82
2023/05/14 11:17:59;;;;;;;4.78;2.70;;;;;;;;;;12674726;23;20712;-83
2023/05/14 11:23:02;;;;;;;3.10;2.45;;;;;;;;;;12673184;23;20712;-83
2023/05/14 11:28:06;;;;;;;2.35;1.90;;;;;;;;;;12672172;23;21095;-83
2023/05/14 11:33:08;;;;;;;2.40;2.20;;;;;;;;;;12671576;23;20438;-82
2023/05/14 11:38:14;;;;;;;2.60;2.03;;;;;;;;;;12670698;23;20749;-82
2023/05/14 11:43:18;;;;;;;2.80;2.25;;;;;;;;;;12671573;23;20391;-83
2023/05/14 11:48:20;;;;;;;2.55;1.40;;;;;;;;;;12671737;23;20832;-82
2023/05/14 11:53:26;;;;;;;1.25;1.10;;;;;;;;;;12671237;23;20375;-83
2023/05/14 11:58:32;;;;;;;1.80;1.50;;;;;;;;;;12671717;23;20410;-83
2023/05/14 12:03:35;;;;;;;2.25;1.55;;;;;;;;;;12671427;23;20391;-82
2023/05/14 12:08:37;;;;;;;1.90;1.70;;;;;;;;;;12670330;23;20453;-83
2023/05/14 12:13:41;;;;;;;0.60;0.60;;;;;;;;;;12671111;23;20450;-83
2023/05/14 12:18:44;;;;;;;0.82;0.82;;;;;;;;;;12670935;23;20442;-83
2023/05/14 12:23:46;;;;;;;0.60;0.50;;;;;;;;;;12670554;23;20390;-81
2023/05/14 12:28:49;;;;;;;0.70;0.70;;;;;;;;;;12671002;23;20375;-81
2023/05/14 12:33:52;;;;;;;0.83;0.60;;;;;;;;;;12671134;23;20379;-81
2023/05/14 12:38:59;;;;;;;0.80;0.50;;;;;;;;;;12670559;23;20411;-82
2023/05/14 12:44:03;;;;;;;5.15;3.75;;;;;;;;;;12669805;23;20450;-82
2023/05/14 12:49:06;;;;;;;1.70;1.13;;;;;;;;;;12669707;23;20371;-81
2023/05/14 12:54:09;;;;;;;1.43;1.00;;;;;;;;;;12670234;23;20376;-82
2023/05/14 12:59:13;;;;;;;0.70;0.70;;;;;;;;;;12669271;23;20696;-82
2023/05/14 13:04:15;;;;;;;1.80;1.03;;;;;;;;;;12670054;23;20391;-82
2023/05/14 13:09:17;;;;;;;1.33;0.88;;;;;;;;;;12668707;23;20445;-83
2023/05/14 13:14:21;;;;;;;0.70;0.70;;;;;;;;;;12666395;23;20454;-83
2023/05/14 13:19:23;;;;;;;0.70;0.60;;;;;;;;;;12660127;23;20371;-82
2023/05/14 13:24:25;;;;;;;0.60;0.60;;;;;;;;;;12663211;23;20391;-82
2023/05/14 13:29:38;;;;;;;0.63;0.52;;;;;;;;;;12662285;23;20700;-82
2023/05/14 13:35:13;;;;;;;0.60;0.60;;;;;;;;;;12663161;23;20704;-83
2023/05/14 13:40:16;;;;;;;0.60;0.33;;;;;;;;;;12660251;23;20375;-83
2023/05/14 13:45:20;;;;;;;0.50;0.43;;;;;;;;;;12662442;23;20390;-84
2023/05/14 13:50:23;;;;;;;0.40;0.38;;;;;;;;;;12661863;23;20375;-83
2023/05/14 13:55:26;;;;;;;0.50;0.50;;;;;;;;;;12662206;23;20371;-82
2023/05/14 14:00:30;;;;;;;0.63;0.52;;;;;;;;;;12661976;23;20697;-82
2023/05/14 14:05:35;;;;;;;2.25;0.70;;;;;;;;;;12662696;23;20453;-83
2023/05/14 14:10:40;;;;;;;1.30;0.70;;;;;;;;;;12662807;23;20367;-82
2023/05/14 14:15:43;;;;;;;1.80;0.70;;;;;;;;;;12662004;23;20359;-82
2023/05/14 14:20:46;;;;;;;1.10;0.80;;;;;;;;;;12663085;23;20371;-83
2023/05/14 14:25:48;;;;;;;0.80;0.70;;;;;;;;;;12659789;23;20422;-83
2023/05/14 14:30:52;;;;;;;0.60;0.50;;;;;;;;;;12659471;23;20843;-83
2023/05/14 14:35:55;;;;;;;0.50;0.50;;;;;;;;;;12659486;23;20375;-83
2023/05/14 14:40:57;;;;;;;1.05;0.47;;;;;;;;;;12656917;23;20430;-81
2023/05/14 14:46:01;;;;;;;0.73;0.70;;;;;;;;;;12659414;23;20390;-83
2023/05/14 14:51:04;;;;;;;0.80;0.40;;;;;;;;;;12663109;23;20379;-83
2023/05/14 14:56:08;;;;;;;0.60;0.50;;;;;;;;;;12663401;23;20374;-83
2023/05/14 15:01:12;;;;;;;1.10;0.60;;;;;;;;;;12663155;23;20371;-83
2023/05/14 15:06:16;;;;;;;1.17;1.00;;;;;;;;;;12662302;23;20499;-84
2023/05/14 15:11:19;;;;;;;1.73;0.50;;;;;;;;;;12661856;23;20421;-84
2023/05/14 15:16:24;;;;;;;3.10;1.67;;;;;;;;;;12661268;23;20383;-84
2023/05/14 15:21:28;;;;;;;1.33;0.80;;;;;;;;;;12660767;23;20441;-85
2023/05/14 15:26:31;;;;;;;7.90;4.20;;;;;;;;;;12663739;23;20541;-84
2023/05/14 15:31:36;;;;;;;0.65;0.63;;;;;;;;;;12661419;23;20371;-83
2023/05/14 15:36:38;;;;;;;0.95;0.40;;;;;;;;;;12682388;23;20383;-83
2023/05/14 15:41:40;;;;;;;2.05;1.40;;;;;;;;;;12658434;23;20375;-84
2023/05/14 15:46:44;;;;;;;0.30;0.22;;;;;;;;;;12663229;23;20395;-84
2023/05/14 15:51:46;;;;;;;0.30;0.30;;;;;;;;;;12662116;23;20579;-84
2023/05/14 15:56:49;;;;;;;0.20;0.20;;;;;;;;;;12664146;23;20719;-82
2023/05/14 16:01:53;;;;;;;0.63;0.50;;;;;;;;;;12661126;23;20375;-83
2023/05/14 16:07:01;;;;;;;0.43;0.40;;;;;;;;;;12682104;23;20445;-84
2023/05/14 16:12:05;;;;;;;0.47;0.47;;;;;;;;;;12664962;23;20442;-85
2023/05/14 16:17:09;;;;;;;0.63;0.57;;;;;;;;;;12662427;23;20438;-84
2023/05/14 16:22:11;;;;;;;0.70;0.40;;;;;;;;;;12656222;23;20383;-84
2023/05/14 16:27:13;;;;;;;0.33;0.33;;;;;;;;;;12663958;23;20395;-84
2023/05/14 16:32:17;;;;;;;0.50;0.40;;;;;;;;;;12681822;23;20434;-84
2023/05/14 16:37:19;;;;;;;0.20;0.20;;;;;;;;;;12661178;23;20430;-84
2023/05/14 16:42:22;;;;;;;0.70;0.45;;;;;;;;;;12661778;23;20930;-84
2023/05/14 16:47:26;;;;;;;1.20;0.70;;;;;;;;;;12663714;23;20391;-84
2023/05/14 16:52:28;;;;;;;0.70;0.45;;;;;;;;;;12659296;23;20486;-83
2023/05/14 16:57:30;;;;;;;0.52;0.50;;;;;;;;;;12655240;23;20434;-84
2023/05/14 17:02:34;;;;;;;1.10;0.43;;;;;;;;;;12660783;23;20434;-84
2023/05/14 17:07:37;;;;;;;0.70;0.40;;;;;;;;;;12657766;23;20387;-82
2023/05/14 17:12:39;;;;;;;0.28;0.20;;;;;;;;;;12647291;23;20836;-84
2023/05/14 17:17:43;;;;;;;0.63;0.55;;;;;;;;;;12656508;23;20383;-82
2023/05/14 17:22:45;;;;;;;0.50;0.50;;;;;;;;;;12659826;23;20371;-82
2023/05/14 17:27:47;;;;;;;1.27;0.60;;;;;;;;;;12658463;23;20701;-82
2023/05/14 17:32:51;;;;;;;0.50;0.40;;;;;;;;;;12660366;23;20379;-82
2023/05/14 17:37:53;;;;;;;0.90;0.70;;;;;;;;;;12662402;23;20363;-81
2023/05/14 17:42:55;;;;;;;0.93;0.57;;;;;;;;;;12662695;23;20434;-81
2023/05/14 17:47:59;;;;;;;0.50;0.50;;;;;;;;;;12663895;23;20387;-82
2023/05/14 17:53:01;;;;;;;1.07;0.97;;;;;;;;;;12662261;23;20367;-81
2023/05/14 17:58:04;;;;;;;2.55;0.57;;;;;;;;;;12663019;23;20426;-81
2023/05/14 18:03:07;;;;;;;0.80;0.80;;;;;;;;;;12661065;23;20430;-81
2023/05/14 18:08:09;;;;;;;1.65;0.80;;;;;;;;;;12662125;23;20716;-82
2023/05/14 18:13:12;;;;;;;4.45;2.90;;;;;;;;;;12663108;23;20375;-81
2023/05/14 18:18:17;;;;;;;4.57;2.60;;;;;;;;;;12661439;23;20375;-82
2023/05/14 18:23:19;;;;;;;2.53;1.90;;;;;;;;;;12665139;23;20856;-82
2023/05/14 18:28:23;;;;;;;3.50;2.00;;;;;;;;;;12666489;23;22552;-82
2023/05/14 18:33:27;;;;;;;3.22;1.60;;;;;;;;;;12667420;23;20430;-81
2023/05/14 18:38:29;;;;;;;1.92;1.30;;;;;;;;;;12665018;23;20375;-81
2023/05/14 18:43:31;;;;;;;2.20;1.60;;;;;;;;;;12664929;23;20907;-81
2023/05/14 18:48:35;;;;;;;1.70;1.60;;;;;;;;;;12664700;23;20410;-82
2023/05/14 18:53:37;;;;;;;2.17;1.93;;;;;;;;;;12663729;23;20378;-81
2023/05/14 18:58:39;;;;;;;2.60;1.92;;;;;;;;;;12665182;23;20402;-81
2023/05/14 19:03:43;;;;;;;2.30;1.70;;;;;;;;;;12660076;23;20406;-81
2023/05/14 19:08:45;;;;;;;1.58;1.30;;;;;;;;;;12665744;23;20446;-81
2023/05/14 19:13:48;;;;;;;2.30;1.42;;;;;;;;;;12665453;23;20438;-81
2023/05/14 19:18:52;;;;;;;6.03;4.20;;;;;;;;;;12662596;23;20367;-82
2023/05/14 19:23:54;;;;;;;5.13;3.72;;;;;;;;;;12658309;23;20387;-82
2023/05/14 19:28:57;;;;;;;2.47;2.00;;;;;;;;;;12659287;23;20926;-81
2023/05/14 19:34:01;;;;;;;2.33;2.00;;;;;;;;;;12658857;23;20383;-81
2023/05/14 19:39:03;;;;;;;4.20;2.33;;;;;;;;;;12656695;23;20387;-81
2023/05/14 19:44:06;;;;;;;3.47;2.72;;;;;;;;;;12655753;23;20390;-82
2023/05/14 19:49:10;;;;;;;3.72;3.00;;;;;;;;;;12657232;23;20442;-82
2023/05/14 19:54:13;;;;;;;5.00;3.10;;;;;;;;;;12659564;23;20379;-82
2023/05/14 19:59:15;;;;;;;4.07;3.40;;;;;;;;;;12658881;23;20867;-82
2023/05/14 20:04:19;;;;;;;3.80;3.10;;;;;;;;;;12658564;23;20383;-82
2023/05/14 20:09:21;;;;;;;5.43;3.08;;;;;;;;;;12661096;23;20410;-82
2023/05/14 20:14:23;;;;;;;3.95;3.10;;;;;;;;;;12656633;23;20379;-81
2023/05/14 20:19:27;;;;;;;4.13;3.40;;;;;;;;;;12651384;23;20434;-81
2023/05/14 20:24:30;;;;;;;4.30;3.28;;;;;;;;;;12656720;23;20387;-81
2023/05/14 20:29:32;;;;;;;4.40;3.40;;;;;;;;;;12652216;23;20391;-81
2023/05/14 20:34:36;;;;;;;4.70;3.60;;;;;;;;;;12655700;23;20383;-82
2023/05/14 20:39:38;;;;;;;5.28;3.90;;;;;;;;;;12667950;23;20442;-83
2023/05/14 20:44:40;;;;;;;5.17;4.40;;;;;;;;;;12657489;23;20391;-82
2023/05/14 20:49:44;;;;;;;8.45;4.15;;;;;;;;;;12656884;23;20382;-82
2023/05/14 20:54:46;;;;;;;5.40;3.50;;;;;;;;;;12656851;23;20387;-81
2023/05/14 20:59:48;;;;;;;3.05;2.50;;;;;;;;;;12656531;23;20383;-82
2023/05/14 21:04:52;;;;;;;4.03;2.65;;;;;;;;;;12655071;23;20977;-82
2023/05/14 21:09:54;;;;;;;2.63;1.95;;;;;;;;;;12657309;23;20469;-82
2023/05/14 21:14:56;;;;;;;2.35;2.10;;;;;;;;;;12656235;23;20415;-82
2023/05/14 21:20:00;;;;;;;2.47;2.20;;;;;;;;;;12655988;23;20390;-81
2023/05/14 21:25:02;;;;;;;3.03;2.30;;;;;;;;;;12656936;23;20391;-81
2023/05/14 21:30:05;;;;;;;3.00;2.55;;;;;;;;;;12654443;23;20391;-82
2023/05/14 21:35:09;;;;;;;3.33;2.63;;;;;;;;;;12654088;23;20955;-82
2023/05/14 21:40:12;;;;;;;4.25;2.50;;;;;;;;;;12654924;23;20383;-82
2023/05/14 21:45:15;;;;;;;3.95;2.50;;;;;;;;;;12654677;23;20768;-82
2023/05/14 21:50:19;;;;;;;3.00;2.13;;;;;;;;;;12657249;23;20403;-83
2023/05/14 21:55:21;;;;;;;3.63;2.50;;;;;;;;;;12664078;23;20379;-82
2023/05/14 22:00:23;;;;;;;3.92;2.50;;;;;;;;;;12661583;23;21143;-82
2023/05/14 22:05:27;;;;;;;3.22;2.38;;;;;;;;;;12664250;23;20375;-83
2023/05/14 22:10:30;;;;;;;2.42;2.17;;;;;;;;;;12660611;23;20410;-83
2023/05/14 22:15:32;;;;;;;2.67;2.20;;;;;;;;;;12662979;23;20371;-83
2023/05/14 22:20:36;;;;;;;2.60;2.10;;;;;;;;;;12663996;23;20441;-82
2023/05/14 22:25:38;;;;;;;3.42;2.30;;;;;;;;;;12665356;23;20799;-82
2023/05/14 22:30:40;;;;;;;3.20;2.30;;;;;;;;;;12665927;23;20419;-81
2023/05/14 22:35:44;;;;;;;3.07;2.27;;;;;;;;;;12665045;23;20682;-82
2023/05/14 22:40:46;;;;;;;2.65;2.10;;;;;;;;;;12666172;23;20432;-82
2023/05/14 22:45:49;;;;;;;3.90;2.70;;;;;;;;;;12663913;23;20477;-82
2023/05/14 22:50:52;;;;;;;3.15;2.50;;;;;;;;;;12658313;23;20367;-83
2023/05/14 22:55:55;;;;;;;3.78;2.55;;;;;;;;;;12664709;23;20375;-82
2023/05/14 23:00:57;;;;;;;2.63;2.22;;;;;;;;;;12666129;23;20371;-83
2023/05/14 23:06:01;;;;;;;3.83;3.20;;;;;;;;;;12644566;23;20650;-83
2023/05/14 23:11:03;;;;;;;4.20;3.30;;;;;;;;;;12605937;23;20904;-82
2023/05/14 23:16:05;;;;;;;3.88;3.08;;;;;;;;;;12606350;23;20372;-82
2023/05/14 23:21:09;;;;;;;4.43;3.42;;;;;;;;;;12600140;23;20905;-83
2023/05/14 23:26:11;;;;;;;3.77;3.30;;;;;;;;;;12604064;23;20467;-82
2023/05/14 23:31:14;;;;;;;4.30;3.90;;;;;;;;;;12604770;23;20452;-82
2023/05/14 23:36:17;;;;;;;7.72;3.75;;;;;;;;;;12607295;23;20754;-82
2023/05/14 23:41:20;;;;;;;4.70;4.07;;;;;;;;;;12608558;23;20377;-83
2023/05/14 23:46:22;;;;;;;6.07;4.05;;;;;;;;;;12609181;23;20396;-82
2023/05/14 23:51:27;;;;;;;5.50;4.37;;;;;;;;;;12605863;23;20431;-82
2023/05/14 23:56:29;;;;;;;5.80;4.20;;;;;;;;;;12609323;23;20409;-82
